Airfield :
LOGIN :

Register | Disclaimer

   EN    FR    IT 

 










Legend :    VFR   Marginal VFR   IFR   Intensive IFR   Very Intensive IFR
Visi :
Ceiling :
>= 8 km
>= 3000ft
5 to 8 km
1000 to 3000 ft
1500m to 5 km
500 to 1000 ft
800 to 1500m
200 to 500 ft
< 800m
< 200 ft
Symbols :   Thunderstorms  Fog  Heavy snow  Heavy precipitations  Wind > 20 kt
SIGMETs :     Misc.  Thunderstorms  Icing  Turbulence  Mountain Waves  Volcanic Ashes







- Airport Elevation : 143 ft


LGEL - Elefsis

CURRENT METAR :
  • 181050Z 34014G24KT 9999 FEW012 BKN025 BKN070 09/06 Q1013

EXPIRED METARs :
  • 181020Z 33014G24KT 9999 -DZ FEW015 BKN025 BKN070 09/07 Q1013
  • 180950Z 33012G22KT 9999 -DZ FEW015 BKN025 BKN070 10/07 Q1013
  • 180920Z 33010G20KT 9000 -DZ FEW015 BKN025 BKN070 10/08 Q1013 RERA
  • 180850Z 34009KT 7000 RA FEW015 BKN025 BKN070 10/08 Q1013
  • 180820Z 33007KT 7000 RA FEW015 BKN025 BKN070 09/08 Q1013
  • 180750Z 34008KT 8000 RA FEW015 BKN025 BKN070 10/08 Q1013

TAF TAF LGEL
Valid from the 18 at 06:00 until the 19 at 06:00 UTC


180500Z 1806/1906 35012KT 9999 FEW018 SCT025 BKN070
PROB40
TEMPO 1806/1812 5000 RA FEW010 BKN025 OVC070
PROB30
TEMPO 1806/1809 5000 TSRA FEW010 FEW018CB BKN020 BKN070
BECMG 1806/1808 35015G25KT
No reported NOTAMs for that airfield.
2 SIGMETs reported for the Athinai FIR (LGGG) :
 
Embedded thunderstorms
LGGG SIGMET 5 VALID 181050/181450 LGAT
LGGG ATHINAI FIR/UIR EMBD TS OBS S OF N3830 AND E OF E02100 MNLY MAR-COT MOV E NC=
Frequent thunderstorms
LGGG SIGMET 4 VALID 180650/181050 LGAT
LGGG ATHINAI FIR/UIR FRQ TS OBS S OF N3900 STNR NC=



MET'MAP, your aeronautical weather chart ! - Copyright ORBIFLY December 2007 - Disclaimer

ORBIFLY MET'MAP TEAM :

Programming & Development : Alexandra Zaïnal
Concept & Development : Baudouin d'Aumeries
Co-Development & Prog : Marc-Olivier Méhu
Technical & hardware support : Manuel Goepfert

Contact : metmap@orbifly.com




SOURCES & CREDITS :

   NOAA